Currently 58°F in Lake Elsinore, California, USA
58°F
59°F / 58°F
4 mph S
0.00"
Monday, May 4, 2026 1:33 AM PDT

Lake Elsinore, California Weather Summary
Last 36 Hours

Temperature Winds Hourly Humidity Dewpoint
Time Report Norm Report Norm Max Gusts Precip. Rpt. Norm Rpt. Norm Pressure
1Mon 01:33 AM  58.3°F  57°F  4 mph S  1 mph  8 mph  0.00"  66%  76%  46°F  49°F  N/A
3Mon 01:28 AM  58.2°F  57°F  3 mph S  1 mph  8 mph  ----  66%  76%  47°F  49°F  N/A
Mon 01:00 AM  58.6°F  58°F  6 mph S  1 mph  12 mph  0.00"  67%  75%  47°F  50°F  N/A
2Mon 12:03 AM  59.0°F  59°F  8 mph S  1 mph  12 mph  ----  66%  74%  47°F  50°F  N/A
Mon 12:00 AM  59.0°F  59°F  4 mph S  1 mph  12 mph  0.00"  66%  74%  47°F  50°F  N/A
Sun 11:00 PM  59.3°F  60°F  2 mph S  1 mph  8 mph  0.00"  63%  72%  46°F  50°F  N/A
Sun 10:00 PM  59.7°F  62°F  3 mph S  2 mph  12 mph  0.00"  61%  69%  46°F  51°F  N/A
Sun 09:00 PM  60.4°F  64°F  7 mph S  2 mph  11 mph  0.00"  58%  64%  45°F  51°F  N/A
Sun 08:00 PM  60.4°F  67°F  7 mph S  3 mph  16 mph  0.00"  59%  57%  46°F  51°F  N/A
Sun 07:00 PM  63.2°F  71°F  10 mph S  5 mph  19 mph  0.00"  52%  50%  45°F  51°F  N/A
Sun 06:00 PM  67.8°F  75°F  10 mph S  5 mph  20 mph  0.00"  45%  44%  45°F  51°F  N/A
Sun 05:00 PM  71.7°F  78°F  4 mph S  6 mph  17 mph  0.00"  42%  40%  47°F  51°F  N/A
Sun 04:00 PM  74.8°F  80°F  5 mph S  6 mph  17 mph  0.00"  38%  37%  47°F  51°F  N/A
Sun 03:00 PM  74.9°F  81°F  calm  5 mph  16 mph  0.00"  39%  36%  48°F  50°F  N/A
Sun 02:00 PM  72.9°F  80°F  calm  4 mph  16 mph  0.00"  45%  36%  49°F  50°F  N/A
Sun 01:00 PM  70.6°F  78°F  calm  3 mph  13 mph  0.00"  47%  38%  49°F  50°F  N/A
Sun 12:00 PM  69.9°F  76°F  calm  3 mph  17 mph  0.00"  50%  42%  49°F  50°F  N/A
Sun 11:00 AM  66.6°F  72°F  5 mph S  3 mph  14 mph  0.00"  59%  47%  51°F  51°F  N/A
Sun 10:00 AM  64.2°F  68°F  calm  2 mph  none  0.00"  64%  55%  51°F  51°F  N/A
Sun 09:00 AM  62.7°F  64°F  calm  2 mph  8 mph  0.00"  68%  65%  52°F  51°F  N/A
Sun 08:00 AM  60.6°F  59°F  3 mph S  1 mph  7 mph  0.00"  74%  75%  52°F  51°F  N/A
Sun 07:00 AM  60.2°F  55°F  calm  1 mph  6 mph  0.00"  78%  81%  53°F  49°F  N/A
Sun 06:00 AM  59.9°F  54°F  3 mph S  1 mph  6 mph  0.00"  78%  80%  53°F  48°F  N/A
Sun 05:00 AM  60.2°F  54°F  3 mph S  1 mph  8 mph  0.00"  77%  80%  53°F  48°F  N/A
Sun 04:00 AM  60.1°F  55°F  2 mph S  1 mph  6 mph  0.00"  78%  79%  53°F  48°F  N/A
Sun 03:00 AM  59.7°F  56°F  4 mph S  1 mph  9 mph  0.00"  79%  78%  53°F  49°F  N/A
Sun 02:00 AM  60.0°F  57°F  2 mph S  1 mph  7 mph  0.00"  81%  76%  54°F  49°F  N/A
Sun 01:00 AM  60.1°F  57°F  3 mph S  1 mph  12 mph  0.00"  82%  75%  54°F  49°F  N/A
Sun 12:00 AM  63.0°F  59°F  4 mph S  1 mph  6 mph  0.00"  75%  74%  55°F  50°F  N/A
Sat 11:00 PM  65.4°F  60°F  2 mph S  1 mph  4 mph  0.00"  70%  72%  55°F  50°F  N/A
Sat 10:00 PM  67.4°F  61°F  1 mph S  2 mph  4 mph  0.00"  68%  69%  56°F  51°F  N/A
Sat 09:00 PM  69.3°F  64°F  calm  2 mph  10 mph  0.00"  62%  64%  55°F  51°F  N/A
Sat 08:00 PM  72.4°F  66°F  3 mph S  3 mph  10 mph  0.00"  56%  57%  55°F  50°F  N/A
Sat 07:00 PM  76.8°F  71°F  2 mph S  5 mph  6 mph  0.00"  52%  50%  57°F  51°F  N/A
Sat 06:00 PM  83.0°F  75°F  4 mph S  5 mph  13 mph  0.00"  34%  43%  51°F  51°F  N/A
Sat 05:00 PM  87.3°F  78°F  2 mph S  6 mph  12 mph  0.00"  27%  39%  48°F  51°F  N/A
Sat 04:00 PM  90.8°F  80°F  3 mph S  6 mph  12 mph  0.00"  24%  37%  48°F  51°F  N/A
Sat 03:00 PM  92.3°F  81°F  2 mph S  5 mph  10 mph  0.00"  22%  35%  47°F  50°F  N/A
Sat 02:00 PM  90.3°F  80°F  3 mph S  4 mph  8 mph  0.00"  21%  36%  43°F  50°F  N/A

  1. Current weather data. No green row appears if the current weather data is also the high or low for the current day.
  2. High temperature for the current day.
  3. Low temperature for the current day.

The Lake Elsinore, California weather pages are a service of WeatherCurrents. Lake Elsinore is located south of Corona and north of the Temecula Valley, in southwestern Riverside County, California.
Copyright ©Mon May 04 01:34:24 PDT 2026  WeatherCurrents. All rights reserved. - Submit questions and comments - Privacy Policy

This page automatically refreshes every 10 minutes.